Platzwetter Flugplatz Wels

Flugwetter Linz LOWL

[Quelle: ADDS]
METAR
LOWL 042150Z AUTO VRB01KT 9999 NCD 19/18 Q1018 =
LOWL 041715Z 0418/0518 29009KT CAVOK TX24/0418Z TN18/0503Z TEMPO 0418/0420 SCT050 FEW050CB TEMPO 0422/0517 SHRA BKN030 FEW030CB PROB30 TEMPO 0423/0516 4000 TSRA FEW008 SCT015 BKN020 SCT020CB
TAF
LOWL 041715Z 0418/0518 29009KT CAVOK TX24/0418Z TN18/0503Z TEMPO 0418/0420 SCT050 FEW050CB TEMPO 0422/0517 SHRA BKN030 FEW030CB PROB30 TEMPO 0423/0516 4000 TSRA FEW008 SCT015 BKN020 SCT020CB =

Flugwetter Salzburg LOWS

[Quelle: ADDS]
METAR
LOWS 042150Z AUTO 29012KT 230V310 9999 -RA VCTS //////CB FEW016 BKN040 20/16 Q1020 =
LOWS 041715Z 0418/0518 15006KT 9999 FEW060 TX23/0515Z TN17/0502Z TEMPO 0420/0501 25015G25KT 4000 TSRA SCT030 SCT040CB BKN060 TEMPO 0501/0509 32007KT SHRA FEW020 FEW020CB BKN040 BECMG 0507/0509 31006KT
TAF
LOWS 041715Z 0418/0518 15006KT 9999 FEW060 TX23/0515Z TN17/0502Z TEMPO 0420/0501 25015G25KT 4000 TSRA SCT030 SCT040CB BKN060 TEMPO 0501/0509 32007KT SHRA FEW020 FEW020CB BKN040 BECMG 0507/0509 31006KT =

Wind - Verlauf

Windrichtung - Verlauf

Temperatur - Verlauf

Relative Luftfeuchtigkeit - Verlauf

Luftdruck - Verlauf

Wir benutzen Cookies

Wir nutzen Cookies auf unserer Website. Einige von ihnen sind essenziell für den Betrieb der Seite, während andere uns helfen, diese Website und die Nutzererfahrung zu verbessern (Tracking Cookies). Sie können selbst entscheiden, ob Sie die Cookies zulassen möchten. Bitte beachten Sie, dass bei einer Ablehnung womöglich nicht mehr alle Funktionalitäten der Seite zur Verfügung stehen.